createdAt,value
2022-09-24T00:02:05.721Z,8.70
2022-09-24T00:04:35.859Z,8.60
2022-09-24T00:07:03.794Z,8.60
2022-09-24T00:09:31.762Z,8.60
2022-09-24T00:12:00.595Z,8.60
2022-09-24T00:14:28.636Z,8.50
2022-09-24T00:16:56.599Z,8.50
2022-09-24T00:19:24.588Z,8.40
2022-09-24T00:21:53.916Z,8.40
2022-09-24T00:24:39.275Z,8.50
2022-09-24T00:27:07.588Z,8.40
2022-09-24T00:29:36.219Z,8.40
2022-09-24T00:32:05.862Z,8.30
2022-09-24T00:34:34.291Z,8.30
2022-09-24T00:37:03.614Z,8.40
2022-09-24T00:39:31.705Z,8.40
2022-09-24T00:41:59.636Z,8.50
2022-09-24T00:44:57.917Z,8.60
2022-09-24T00:47:34.891Z,8.60
2022-09-24T00:50:18.232Z,8.60
2022-09-24T00:52:53.115Z,8.50
2022-09-24T00:55:23.692Z,8.40
2022-09-24T00:57:54.278Z,8.40
2022-09-24T01:00:22.520Z,8.20
2022-09-24T01:02:53.440Z,8.10
2022-09-24T01:05:21.512Z,8.00
2022-09-24T01:07:50.872Z,8.00
2022-09-24T01:10:37.493Z,8.10
2022-09-24T01:13:14.999Z,8.10
2022-09-24T01:15:48.890Z,8.20
2022-09-24T01:18:23.645Z,8.20
2022-09-24T01:21:04.450Z,8.20
2022-09-24T01:24:08.102Z,8.20
2022-09-24T01:26:58.798Z,8.10
2022-09-24T01:29:50.203Z,8.10
2022-09-24T01:32:27.734Z,8.10
2022-09-24T01:35:02.692Z,8.10
2022-09-24T01:37:34.321Z,8.10
2022-09-24T01:40:04.163Z,8.00
2022-09-24T01:42:33.108Z,8.00
2022-09-24T01:45:03.592Z,8.00
2022-09-24T01:47:35.692Z,8.00
2022-09-24T01:50:05.872Z,7.90
2022-09-24T01:52:41.575Z,7.80
2022-09-24T01:55:14.589Z,7.80
2022-09-24T01:57:47.772Z,7.60
2022-09-24T02:00:19.827Z,7.60
2022-09-24T02:02:52.553Z,7.70
2022-09-24T02:05:26.112Z,7.70
2022-09-24T02:07:59.365Z,7.70
2022-09-24T02:10:31.751Z,7.70
2022-09-24T02:13:04.762Z,7.70
2022-09-24T02:15:37.892Z,7.70
2022-09-24T02:18:09.929Z,7.70
2022-09-24T02:20:40.942Z,7.70
2022-09-24T02:23:11.785Z,7.70
2022-09-24T02:25:44.124Z,7.80
2022-09-24T02:28:12.176Z,7.80
2022-09-24T02:30:47.589Z,7.80
2022-09-24T02:33:34.988Z,7.80
2022-09-24T02:36:03.442Z,7.80
2022-09-24T02:38:31.415Z,7.80
2022-09-24T02:40:59.717Z,7.80
2022-09-24T02:43:28.006Z,7.80
2022-09-24T02:45:57.310Z,7.70
2022-09-24T02:48:25.285Z,7.70
2022-09-24T02:50:53.893Z,7.70
2022-09-24T02:53:21.843Z,7.70
2022-09-24T02:55:49.939Z,7.70
2022-09-24T02:58:17.859Z,7.70
2022-09-24T03:00:45.842Z,7.60
2022-09-24T03:03:15.280Z,7.70
2022-09-24T03:05:43.281Z,7.70
2022-09-24T03:08:11.242Z,7.70
2022-09-24T03:10:39.187Z,7.70
2022-09-24T03:13:07.155Z,7.70
2022-09-24T03:15:35.120Z,7.60
2022-09-24T03:18:03.460Z,7.50
2022-09-24T03:20:32.816Z,7.50
2022-09-24T03:23:00.844Z,7.60
2022-09-24T03:25:28.813Z,7.70
2022-09-24T03:27:56.844Z,7.70
2022-09-24T03:30:42.172Z,7.70
2022-09-24T03:33:10.135Z,7.70
2022-09-24T03:35:39.477Z,7.70
2022-09-24T03:38:07.455Z,7.50
2022-09-24T03:40:35.477Z,7.50
2022-09-24T03:43:03.534Z,7.50
2022-09-24T03:45:31.948Z,7.60
2022-09-24T03:47:59.901Z,7.70
2022-09-24T03:50:27.880Z,7.60
2022-09-24T03:52:57.252Z,7.70
2022-09-24T03:55:25.203Z,7.70
2022-09-24T03:57:53.150Z,7.70
2022-09-24T04:00:22.078Z,7.70
2022-09-24T04:02:50.156Z,7.60
2022-09-24T04:05:18.640Z,7.60
2022-09-24T04:07:46.751Z,7.60
2022-09-24T04:10:16.384Z,7.60
2022-09-24T04:12:45.661Z,7.60
2022-09-24T04:15:13.898Z,7.60
2022-09-24T04:17:41.848Z,7.70
2022-09-24T04:20:10.760Z,7.70
2022-09-24T04:22:39.245Z,7.70
2022-09-24T04:25:11.441Z,7.80
2022-09-24T04:27:44.072Z,7.80
2022-09-24T04:30:14.061Z,7.80
2022-09-24T04:32:42.766Z,7.80
2022-09-24T04:35:11.409Z,7.70
2022-09-24T04:37:39.525Z,7.70
2022-09-24T04:40:12.598Z,7.70
2022-09-24T04:42:41.599Z,7.80
2022-09-24T04:45:12.534Z,7.80
2022-09-24T04:47:41.848Z,7.70
2022-09-24T04:50:12.385Z,7.80
2022-09-24T04:52:40.642Z,7.80
2022-09-24T04:55:09.643Z,7.90
2022-09-24T04:57:37.652Z,7.80
2022-09-24T05:00:08.668Z,7.60
2022-09-24T05:02:38.130Z,7.50
2022-09-24T05:05:06.802Z,7.50
2022-09-24T05:07:35.349Z,7.60
2022-09-24T05:10:03.369Z,7.60
2022-09-24T05:12:31.482Z,7.70
2022-09-24T05:14:59.435Z,7.80
2022-09-24T05:17:27.379Z,7.90
2022-09-24T05:19:57.874Z,8.00
2022-09-24T05:22:27.484Z,8.10
2022-09-24T05:24:55.795Z,8.20
2022-09-24T05:27:24.256Z,8.20
2022-09-24T05:29:52.267Z,8.10
2022-09-24T05:32:21.523Z,7.90
2022-09-24T05:34:50.840Z,7.80
2022-09-24T05:37:20.762Z,7.70
2022-09-24T05:39:48.712Z,8.00
2022-09-24T05:42:16.646Z,8.10
2022-09-24T05:44:48.522Z,8.30
2022-09-24T05:47:19.409Z,8.20
2022-09-24T05:49:47.394Z,8.10
2022-09-24T05:52:15.321Z,8.10
2022-09-24T05:54:44.650Z,8.10
2022-09-24T05:57:15.585Z,8.20
2022-09-24T05:59:43.795Z,8.40
2022-09-24T06:02:12.420Z,8.60
2022-09-24T06:04:40.409Z,8.70
2022-09-24T06:07:08.370Z,8.80
2022-09-24T06:09:36.547Z,8.80
2022-09-24T06:12:10.911Z,8.80
2022-09-24T06:14:38.833Z,9.00
2022-09-24T06:17:06.792Z,9.20
2022-09-24T06:19:34.747Z,9.20
2022-09-24T06:22:02.758Z,9.20
2022-09-24T06:24:30.721Z,9.20
2022-09-24T06:26:59.368Z,9.30
2022-09-24T06:29:28.705Z,9.40
2022-09-24T06:31:56.652Z,9.40
2022-09-24T06:34:24.600Z,9.30
2022-09-24T06:36:55.064Z,9.50
2022-09-24T06:39:24.251Z,9.70
2022-09-24T06:41:53.092Z,10.00
2022-09-24T06:44:21.335Z,9.90
2022-09-24T06:46:50.753Z,10.00
2022-09-24T06:49:18.802Z,10.10
2022-09-24T06:51:46.858Z,10.00
2022-09-24T06:54:15.000Z,10.10
2022-09-24T06:56:42.929Z,10.10
2022-09-24T06:59:11.091Z,10.30
2022-09-24T07:01:39.269Z,10.50
2022-09-24T07:04:08.660Z,10.50
2022-09-24T07:06:50.547Z,10.50
2022-09-24T07:09:18.501Z,10.50
2022-09-24T07:11:47.000Z,10.50
2022-09-24T07:14:15.492Z,10.40
2022-09-24T07:16:43.435Z,10.60
2022-09-24T07:19:12.751Z,10.60
2022-09-24T07:21:40.854Z,10.70
2022-09-24T07:24:08.987Z,10.80
2022-09-24T07:26:36.938Z,11.00
2022-09-24T07:29:05.303Z,10.90
2022-09-24T07:31:33.731Z,11.00
2022-09-24T07:34:01.775Z,11.10
2022-09-24T07:36:31.415Z,11.20
2022-09-24T07:38:59.470Z,11.10
2022-09-24T07:41:27.433Z,11.10
2022-09-24T07:43:57.149Z,11.10
2022-09-24T07:46:25.786Z,11.30
2022-09-24T07:48:56.417Z,11.30
2022-09-24T07:51:25.706Z,11.40
2022-09-24T07:53:55.911Z,11.50
2022-09-24T07:56:24.465Z,11.70
2022-09-24T07:58:53.612Z,12.00
2022-09-24T08:01:22.070Z,12.00
2022-09-24T08:03:52.301Z,12.10
2022-09-24T08:06:21.839Z,12.20
2022-09-24T08:08:50.922Z,12.30
2022-09-24T08:11:21.412Z,12.30
2022-09-24T08:13:49.609Z,12.50
2022-09-24T08:16:17.987Z,12.80
2022-09-24T08:18:45.968Z,13.00
2022-09-24T08:21:15.394Z,13.00
2022-09-24T08:23:44.739Z,13.00
2022-09-24T08:26:13.540Z,13.10
2022-09-24T08:28:42.913Z,13.20
2022-09-24T08:31:13.956Z,13.40
2022-09-24T08:33:41.966Z,13.70
2022-09-24T08:36:11.018Z,13.50
2022-09-24T08:38:39.222Z,13.40
2022-09-24T08:41:27.124Z,13.50
2022-09-24T08:44:03.525Z,13.50
2022-09-24T08:46:56.172Z,13.70
2022-09-24T08:49:30.402Z,13.70
2022-09-24T08:52:06.172Z,13.80
2022-09-24T08:54:36.800Z,14.00
2022-09-24T08:57:11.935Z,13.90
2022-09-24T08:59:45.023Z,14.10
2022-09-24T09:02:31.410Z,14.30
2022-09-24T09:05:06.249Z,14.10
2022-09-24T09:07:41.570Z,14.10
2022-09-24T09:10:13.802Z,14.10
2022-09-24T09:12:45.288Z,14.00
2022-09-24T09:15:18.887Z,14.10
2022-09-24T09:17:51.072Z,14.30
2022-09-24T09:20:22.130Z,14.40
2022-09-24T09:22:53.402Z,14.30
2022-09-24T09:25:25.029Z,14.30
2022-09-24T09:27:59.494Z,14.00
2022-09-24T09:30:34.611Z,14.20
2022-09-24T09:33:22.170Z,14.50
2022-09-24T09:35:58.207Z,14.60
2022-09-24T09:38:34.889Z,14.70
2022-09-24T09:41:13.725Z,14.90
2022-09-24T09:43:43.024Z,15.10
2022-09-24T09:46:16.359Z,15.50
2022-09-24T09:48:47.398Z,15.80
2022-09-24T09:51:22.717Z,15.90
2022-09-24T09:53:58.833Z,15.90
2022-09-24T09:56:29.740Z,15.60
2022-09-24T09:59:07.157Z,15.60
2022-09-24T10:01:40.687Z,15.60
2022-09-24T10:04:28.600Z,15.40
2022-09-24T10:07:07.093Z,15.20
2022-09-24T10:09:35.657Z,15.40
2022-09-24T10:12:22.266Z,15.60
2022-09-24T10:14:59.659Z,15.90
2022-09-24T10:17:32.462Z,15.80
2022-09-24T10:20:03.269Z,15.80
2022-09-24T10:22:32.086Z,15.90
2022-09-24T10:25:02.097Z,16.00
2022-09-24T10:27:34.090Z,15.80
2022-09-24T10:30:22.909Z,15.80
2022-09-24T10:33:00.019Z,15.70
2022-09-24T10:35:30.382Z,15.60
2022-09-24T10:38:00.597Z,15.60
2022-09-24T10:40:31.227Z,15.60
2022-09-24T10:43:01.145Z,15.60
2022-09-24T10:45:52.841Z,15.70
2022-09-24T10:48:27.943Z,15.70
2022-09-24T10:51:04.079Z,15.80
2022-09-24T10:53:45.647Z,16.00
2022-09-24T10:56:22.643Z,16.00
2022-09-24T10:59:23.279Z,16.10
2022-09-24T11:02:03.837Z,16.20
2022-09-24T11:04:47.326Z,16.40
2022-09-24T11:07:42.055Z,16.10
2022-09-24T11:10:29.099Z,16.10
2022-09-24T11:13:07.925Z,16.20
2022-09-24T11:15:53.495Z,16.40
2022-09-24T11:18:36.469Z,16.50
2022-09-24T11:21:18.350Z,16.40
2022-09-24T11:24:08.738Z,16.30
2022-09-24T11:26:48.616Z,16.30
2022-09-24T11:29:37.336Z,16.00
2022-09-24T11:32:13.897Z,16.30
2022-09-24T11:34:53.555Z,16.20
2022-09-24T11:37:37.978Z,16.40
2022-09-24T11:40:32.751Z,16.60
2022-09-24T11:43:15.567Z,17.00
2022-09-24T11:45:54.424Z,17.40
2022-09-24T11:48:48.931Z,17.50
2022-09-24T11:51:29.361Z,17.30
2022-09-24T11:54:03.676Z,17.50
2022-09-24T11:56:34.571Z,17.40
2022-09-24T11:59:17.834Z,17.60
2022-09-24T12:01:49.421Z,17.30
2022-09-24T12:04:21.750Z,17.20
2022-09-24T12:06:54.955Z,17.30
2022-09-24T12:09:31.240Z,17.00
2022-09-24T12:12:06.205Z,17.10
2022-09-24T12:14:46.104Z,17.10
2022-09-24T12:17:22.395Z,17.20
2022-09-24T12:19:57.011Z,17.10
2022-09-24T12:22:27.303Z,17.10
2022-09-24T12:25:00.391Z,17.20
2022-09-24T12:27:34.238Z,17.20
2022-09-24T12:30:44.717Z,17.30
2022-09-24T12:33:18.848Z,17.60
2022-09-24T12:35:58.982Z,17.80
2022-09-24T12:38:32.634Z,17.80
2022-09-24T12:41:25.470Z,17.70
2022-09-24T12:43:59.131Z,17.30
2022-09-24T12:46:32.448Z,16.80
2022-09-24T12:49:01.268Z,16.80
2022-09-24T12:51:36.679Z,16.60
2022-09-24T12:54:10.532Z,16.60
2022-09-24T12:56:41.410Z,16.70
2022-09-24T12:59:26.207Z,16.80
2022-09-24T13:01:54.607Z,16.80
2022-09-24T13:04:30.102Z,16.80
2022-09-24T13:06:58.220Z,16.90
2022-09-24T13:09:37.180Z,16.90
2022-09-24T13:12:21.300Z,17.00
2022-09-24T13:14:55.778Z,17.20
2022-09-24T13:17:24.541Z,17.00
2022-09-24T13:19:59.283Z,17.10
2022-09-24T13:22:29.574Z,17.20
2022-09-24T13:25:22.733Z,17.20
2022-09-24T13:28:04.001Z,17.40
2022-09-24T13:30:39.722Z,17.40
2022-09-24T13:33:21.397Z,17.50
2022-09-24T13:36:01.967Z,17.30
2022-09-24T13:38:32.592Z,17.20
2022-09-24T13:41:05.292Z,17.20
2022-09-24T13:43:48.168Z,17.00
2022-09-24T13:46:18.452Z,16.80
2022-09-24T13:48:52.081Z,16.50
2022-09-24T13:51:26.439Z,16.40
2022-09-24T13:54:00.113Z,16.40
2022-09-24T13:56:28.201Z,16.40
2022-09-24T13:59:07.367Z,16.50
2022-09-24T14:01:42.154Z,16.50
2022-09-24T14:04:18.289Z,16.50
2022-09-24T14:06:50.207Z,16.50
2022-09-24T14:09:30.027Z,16.50
2022-09-24T14:11:59.714Z,16.70
2022-09-24T14:14:30.772Z,16.70
2022-09-24T14:17:08.430Z,16.60
2022-09-24T14:19:36.535Z,16.50
2022-09-24T14:22:07.496Z,16.40
2022-09-24T14:24:37.039Z,16.30
2022-09-24T14:27:08.534Z,16.20
2022-09-24T14:29:47.858Z,16.30
2022-09-24T14:32:24.005Z,16.30
2022-09-24T14:34:54.359Z,16.30
2022-09-24T14:37:25.785Z,16.20
2022-09-24T14:40:00.111Z,16.20
2022-09-24T14:42:32.792Z,16.20
2022-09-24T14:45:04.451Z,16.10
2022-09-24T14:47:34.053Z,16.10
2022-09-24T14:50:04.036Z,16.20
2022-09-24T14:52:33.919Z,16.20
2022-09-24T14:55:10.907Z,16.20
2022-09-24T14:57:43.318Z,16.20
2022-09-24T15:00:23.976Z,16.20
2022-09-24T15:02:57.876Z,16.10
2022-09-24T15:05:27.549Z,16.00
2022-09-24T15:08:17.425Z,16.00
2022-09-24T15:10:53.466Z,16.00
2022-09-24T15:13:25.148Z,15.90
2022-09-24T15:16:16.407Z,15.90
2022-09-24T15:18:44.438Z,15.90
2022-09-24T15:21:13.457Z,15.80
2022-09-24T15:23:41.451Z,15.80
2022-09-24T15:26:10.454Z,15.70
2022-09-24T15:28:38.399Z,15.70
2022-09-24T15:31:07.951Z,15.60
2022-09-24T15:33:36.029Z,15.60
2022-09-24T15:36:04.118Z,15.70
2022-09-24T15:38:32.105Z,15.60
2022-09-24T15:41:00.794Z,15.60
2022-09-24T15:43:29.445Z,15.50
2022-09-24T15:45:57.430Z,15.30
2022-09-24T15:48:26.776Z,15.30
2022-09-24T15:50:55.575Z,15.30
2022-09-24T15:53:27.280Z,15.20
2022-09-24T15:55:57.166Z,15.20
2022-09-24T15:58:25.512Z,15.10
2022-09-24T16:00:53.920Z,15.20
2022-09-24T16:03:24.877Z,15.20
2022-09-24T16:05:55.195Z,15.10
2022-09-24T16:08:23.818Z,15.20
2022-09-24T16:10:52.459Z,15.10
2022-09-24T16:13:22.373Z,15.00
2022-09-24T16:15:50.692Z,14.90
2022-09-24T16:18:19.070Z,14.80
2022-09-24T16:20:47.469Z,14.70
2022-09-24T16:23:18.073Z,14.60
2022-09-24T16:25:56.719Z,14.50
2022-09-24T16:28:25.109Z,14.50
2022-09-24T16:30:53.407Z,14.40
2022-09-24T16:33:22.001Z,14.30
2022-09-24T16:35:50.042Z,14.30
2022-09-24T16:38:22.860Z,14.20
2022-09-24T16:40:59.990Z,14.20
2022-09-24T16:43:28.089Z,14.10
2022-09-24T16:46:01.571Z,14.10
2022-09-24T16:48:29.620Z,14.00
2022-09-24T16:51:04.302Z,14.00
2022-09-24T16:53:34.829Z,13.90
2022-09-24T16:56:08.390Z,13.80
2022-09-24T16:58:36.804Z,13.70
2022-09-24T17:01:06.285Z,13.70
2022-09-24T17:03:34.608Z,13.60
2022-09-24T17:06:02.614Z,13.60
2022-09-24T17:08:48.015Z,13.50
2022-09-24T17:11:16.104Z,13.40
2022-09-24T17:13:44.302Z,13.40
2022-09-24T17:16:12.290Z,13.30
2022-09-24T17:18:40.334Z,13.30
2022-09-24T17:21:11.176Z,13.30
2022-09-24T17:23:40.837Z,13.30
2022-09-24T17:26:11.549Z,13.20
2022-09-24T17:28:41.915Z,13.30
2022-09-24T17:31:12.061Z,13.30
2022-09-24T17:33:43.681Z,13.30
2022-09-24T17:36:14.273Z,13.30
2022-09-24T17:38:43.814Z,13.30
2022-09-24T17:41:14.151Z,13.20
2022-09-24T17:43:42.761Z,13.20
2022-09-24T17:46:14.343Z,13.20
2022-09-24T17:48:45.024Z,13.20
2022-09-24T17:51:15.506Z,13.20
2022-09-24T17:53:44.819Z,13.20
2022-09-24T17:56:14.840Z,13.10
2022-09-24T17:58:44.559Z,13.10
2022-09-24T18:01:14.352Z,13.10
2022-09-24T18:03:42.631Z,13.10
2022-09-24T18:06:13.012Z,13.10
2022-09-24T18:08:42.497Z,13.10
2022-09-24T18:11:14.670Z,13.10
2022-09-24T18:13:42.764Z,13.10
2022-09-24T18:16:13.184Z,13.10
2022-09-24T18:18:41.863Z,13.00
2022-09-24T18:21:11.695Z,13.00
2022-09-24T18:23:40.191Z,13.00
2022-09-24T18:26:10.796Z,13.00
2022-09-24T18:28:41.516Z,12.90
2022-09-24T18:31:10.971Z,12.90
2022-09-24T18:33:40.660Z,13.00
2022-09-24T18:36:10.827Z,12.90
2022-09-24T18:38:38.959Z,12.90
2022-09-24T18:41:09.731Z,12.80
2022-09-24T18:43:38.520Z,12.70
2022-09-24T18:46:09.906Z,12.70
2022-09-24T18:48:38.506Z,12.60
2022-09-24T18:51:07.667Z,12.50
2022-09-24T18:53:36.340Z,12.50
2022-09-24T18:56:09.039Z,12.50
2022-09-24T18:58:37.061Z,12.40
2022-09-24T19:01:09.743Z,12.40
2022-09-24T19:03:39.654Z,12.40
2022-09-24T19:06:08.952Z,12.40
2022-09-24T19:08:36.974Z,12.40
2022-09-24T19:11:07.721Z,12.40
2022-09-24T19:13:36.516Z,12.40
2022-09-24T19:16:08.207Z,12.40
2022-09-24T19:18:37.132Z,12.40
2022-09-24T19:21:06.773Z,12.40
2022-09-24T19:23:37.502Z,12.30
2022-09-24T19:26:06.819Z,12.30
2022-09-24T19:28:35.288Z,12.20
2022-09-24T19:31:03.987Z,12.20
2022-09-24T19:33:33.387Z,12.20
2022-09-24T19:36:03.663Z,12.10
2022-09-24T19:38:34.708Z,12.10
2022-09-24T19:41:04.869Z,12.20
2022-09-24T19:43:33.281Z,12.20
2022-09-24T19:46:03.418Z,12.20
2022-09-24T19:48:36.382Z,12.20
2022-09-24T19:51:08.615Z,12.10
2022-09-24T19:53:37.500Z,12.20
2022-09-24T19:56:06.498Z,12.20
2022-09-24T19:58:34.919Z,12.20
2022-09-24T20:01:03.493Z,12.10
2022-09-24T20:03:34.545Z,12.00
2022-09-24T20:06:08.842Z,11.90
2022-09-24T20:08:37.176Z,11.90
2022-09-24T20:11:05.946Z,11.90
2022-09-24T20:13:33.972Z,11.80
2022-09-24T20:16:03.209Z,11.70
2022-09-24T20:18:34.714Z,11.70
2022-09-24T20:21:04.447Z,11.70
2022-09-24T20:23:32.876Z,11.70
2022-09-24T20:26:18.254Z,11.60
2022-09-24T20:28:46.542Z,11.60
2022-09-24T20:31:19.213Z,11.70
2022-09-24T20:33:49.856Z,11.70
2022-09-24T20:36:23.258Z,11.60
2022-09-24T20:38:52.630Z,11.50
2022-09-24T20:41:22.847Z,11.50
2022-09-24T20:43:51.279Z,11.50
2022-09-24T20:46:24.000Z,11.50
2022-09-24T20:48:53.960Z,11.50
2022-09-24T20:51:23.167Z,11.40
2022-09-24T20:53:51.605Z,11.40
2022-09-24T20:56:20.065Z,11.20
2022-09-24T20:58:51.131Z,11.20
2022-09-24T21:01:20.220Z,11.20
2022-09-24T21:03:49.991Z,11.20
2022-09-24T21:06:22.966Z,11.20
2022-09-24T21:08:51.811Z,11.10
2022-09-24T21:11:21.240Z,11.10
2022-09-24T21:13:51.595Z,11.10
2022-09-24T21:16:21.124Z,11.00
2022-09-24T21:18:50.764Z,11.00
2022-09-24T21:21:22.003Z,10.90
2022-09-24T21:23:53.314Z,10.90
2022-09-24T21:26:22.957Z,10.80
2022-09-24T21:28:53.846Z,10.90
2022-09-24T21:31:24.349Z,10.70
2022-09-24T21:33:53.670Z,10.60
2022-09-24T21:36:24.549Z,10.70
2022-09-24T21:38:55.267Z,10.70
2022-09-24T21:41:24.348Z,10.70
2022-09-24T21:43:52.393Z,10.70
2022-09-24T21:46:20.526Z,10.70
2022-09-24T21:48:48.722Z,10.70
2022-09-24T21:51:21.773Z,10.60
2022-09-24T21:53:52.257Z,10.60
2022-09-24T21:56:21.198Z,10.50
2022-09-24T21:58:49.930Z,10.50
2022-09-24T22:01:19.724Z,10.50
2022-09-24T22:03:48.740Z,10.50
2022-09-24T22:06:16.764Z,10.50
2022-09-24T22:08:46.887Z,10.60
2022-09-24T22:11:17.904Z,10.60
2022-09-24T22:13:46.321Z,10.60
2022-09-24T22:16:14.284Z,10.50
2022-09-24T22:18:42.252Z,10.40
2022-09-24T22:21:12.517Z,10.40
2022-09-24T22:23:40.859Z,10.40
2022-09-24T22:26:10.055Z,10.50
2022-09-24T22:28:39.418Z,10.40
2022-09-24T22:31:09.394Z,10.40
2022-09-24T22:33:55.403Z,10.30
2022-09-24T22:36:24.343Z,10.30
2022-09-24T22:38:53.353Z,10.20
2022-09-24T22:41:21.445Z,10.20
2022-09-24T22:43:52.138Z,10.30
2022-09-24T22:46:20.845Z,10.30
2022-09-24T22:48:50.168Z,10.30
2022-09-24T22:51:18.642Z,10.30
2022-09-24T22:53:46.633Z,10.20
2022-09-24T22:56:17.344Z,10.20
2022-09-24T22:58:51.127Z,10.20
2022-09-24T23:01:22.545Z,10.20
2022-09-24T23:03:52.210Z,10.20
2022-09-24T23:06:20.819Z,10.20
2022-09-24T23:08:49.873Z,10.20
2022-09-24T23:11:19.660Z,10.20
2022-09-24T23:13:52.269Z,10.20
2022-09-24T23:16:23.718Z,10.20
2022-09-24T23:18:53.813Z,10.20
2022-09-24T23:21:23.180Z,10.20
2022-09-24T23:23:54.816Z,10.20
2022-09-24T23:26:23.858Z,10.10
2022-09-24T23:28:52.951Z,10.10
2022-09-24T23:31:25.296Z,10.00
2022-09-24T23:33:54.925Z,10.00
2022-09-24T23:36:23.431Z,10.00
2022-09-24T23:38:52.729Z,10.10
2022-09-24T23:41:21.703Z,10.10
2022-09-24T23:43:50.113Z,10.10
2022-09-24T23:46:18.623Z,10.00
2022-09-24T23:48:48.075Z,10.10
2022-09-24T23:51:16.025Z,10.00
2022-09-24T23:53:43.953Z,10.10
2022-09-24T23:56:13.347Z,10.10
2022-09-24T23:58:42.269Z,10.00
